createdAt,value
2018-12-23T00:01:27.462Z,14.70
2018-12-23T00:03:57.043Z,14.70
2018-12-23T00:06:27.331Z,14.70
2018-12-23T00:08:57.666Z,14.70
2018-12-23T00:11:27.241Z,14.70
2018-12-23T00:13:58.027Z,14.70
2018-12-23T00:16:29.111Z,14.60
2018-12-23T00:18:59.447Z,14.60
2018-12-23T00:21:29.279Z,14.70
2018-12-23T00:23:59.884Z,14.70
2018-12-23T00:26:29.391Z,14.80
2018-12-23T00:28:59.568Z,14.60
2018-12-23T00:31:29.674Z,14.70
2018-12-23T00:33:59.137Z,14.70
2018-12-23T00:36:29.079Z,14.60
2018-12-23T00:38:59.250Z,14.60
2018-12-23T00:41:29.075Z,14.70
2018-12-23T00:43:59.610Z,14.70
2018-12-23T00:46:34.139Z,14.70
2018-12-23T00:49:03.739Z,14.60
2018-12-23T00:51:33.928Z,14.70
2018-12-23T00:54:03.625Z,14.70
2018-12-23T00:56:34.504Z,14.80
2018-12-23T00:59:04.472Z,14.70
2018-12-23T01:01:35.043Z,14.60
2018-12-23T01:04:05.369Z,14.60
2018-12-23T01:06:35.551Z,14.60
2018-12-23T01:09:06.607Z,14.60
2018-12-23T01:11:37.559Z,14.60
2018-12-23T01:14:07.331Z,14.60
2018-12-23T01:16:37.456Z,14.60
2018-12-23T01:19:07.309Z,14.60
2018-12-23T01:21:39.324Z,14.60
2018-12-23T01:24:10.093Z,14.60
2018-12-23T01:26:40.029Z,14.60
2018-12-23T01:29:09.896Z,14.60
2018-12-23T01:31:40.855Z,14.60
2018-12-23T01:34:11.536Z,14.60
2018-12-23T01:36:41.544Z,14.60
2018-12-23T01:39:11.821Z,14.60
2018-12-23T01:41:42.763Z,14.60
2018-12-23T01:44:13.138Z,14.60
2018-12-23T01:46:43.071Z,14.60
2018-12-23T01:49:12.899Z,14.60
2018-12-23T01:51:43.737Z,14.60
2018-12-23T01:54:14.343Z,14.60
2018-12-23T01:56:44.613Z,14.60
2018-12-23T01:59:15.373Z,14.60
2018-12-23T02:01:45.744Z,14.60
2018-12-23T02:04:16.279Z,14.60
2018-12-23T02:06:46.635Z,14.60
2018-12-23T02:09:16.726Z,14.60
2018-12-23T02:11:46.268Z,14.80
2018-12-23T02:14:16.113Z,14.70
2018-12-23T02:16:45.959Z,14.80
2018-12-23T02:19:16.060Z,15.30
2018-12-23T02:21:46.993Z,14.80
2018-12-23T02:24:17.287Z,14.70
2018-12-23T02:26:47.100Z,14.80
2018-12-23T02:29:18.083Z,14.80
2018-12-23T02:31:48.697Z,14.80
2018-12-23T02:34:19.343Z,14.80
2018-12-23T02:36:50.122Z,14.80
2018-12-23T02:40:49.110Z,14.80
2018-12-23T02:43:19.559Z,14.80
2018-12-23T02:45:49.632Z,15.30
2018-12-23T02:48:19.679Z,14.80
2018-12-23T02:50:49.499Z,14.80
2018-12-23T02:53:20.733Z,14.80
2018-12-23T02:55:50.339Z,14.80
2018-12-23T02:58:20.203Z,14.80
2018-12-23T03:00:55.895Z,14.80
2018-12-23T03:03:26.215Z,14.80
2018-12-23T03:06:06.167Z,14.80
2018-12-23T03:08:34.890Z,14.80
2018-12-23T03:11:04.787Z,14.80
2018-12-23T03:13:35.737Z,14.80
2018-12-23T03:16:05.933Z,14.80
2018-12-23T03:18:36.452Z,14.80
2018-12-23T03:21:06.461Z,14.90
2018-12-23T03:23:36.706Z,14.80
2018-12-23T03:26:06.564Z,14.80
2018-12-23T03:28:36.415Z,14.80
2018-12-23T03:31:06.169Z,14.80
2018-12-23T03:33:35.975Z,14.80
2018-12-23T03:36:15.005Z,15.00
2018-12-23T03:38:40.060Z,14.80
2018-12-23T03:41:10.009Z,14.80
2018-12-23T03:43:39.449Z,14.90
2018-12-23T03:46:09.151Z,14.80
2018-12-23T03:48:40.805Z,14.90
2018-12-23T03:51:11.193Z,15.00
2018-12-23T03:53:40.614Z,15.00
2018-12-23T03:56:11.108Z,15.00
2018-12-23T03:58:41.642Z,15.00
2018-12-23T04:01:11.465Z,15.00
2018-12-23T04:03:42.009Z,15.00
2018-12-23T04:06:11.939Z,15.20
2018-12-23T04:08:41.631Z,15.10
2018-12-23T04:11:11.568Z,15.10
2018-12-23T04:13:41.927Z,15.10
2018-12-23T04:16:12.610Z,15.10
2018-12-23T04:18:42.402Z,15.10
2018-12-23T04:21:12.466Z,15.10
2018-12-23T04:23:43.194Z,15.10
2018-12-23T04:26:13.977Z,15.10
2018-12-23T04:28:43.824Z,15.10
2018-12-23T04:31:14.118Z,15.10
2018-12-23T04:33:43.099Z,15.00
2018-12-23T04:36:13.111Z,14.90
2018-12-23T04:38:44.174Z,15.00
2018-12-23T04:41:14.062Z,15.00
2018-12-23T04:43:44.071Z,15.00
2018-12-23T04:46:14.465Z,15.00
2018-12-23T04:48:44.421Z,15.00
2018-12-23T04:51:14.105Z,15.20
2018-12-23T04:53:44.359Z,15.30
2018-12-23T04:56:14.031Z,15.40
2018-12-23T04:58:45.903Z,15.50
2018-12-23T05:01:15.544Z,15.60
2018-12-23T05:03:45.920Z,15.60
2018-12-23T05:06:17.850Z,15.60
2018-12-23T05:08:48.360Z,16.30
2018-12-23T05:11:17.222Z,15.70
2018-12-23T05:13:46.146Z,15.70
2018-12-23T05:16:15.207Z,15.80
2018-12-23T05:18:44.221Z,15.40
2018-12-23T05:21:13.217Z,15.80
2018-12-23T05:23:42.039Z,15.80
2018-12-23T05:26:11.158Z,15.80
2018-12-23T05:28:40.268Z,15.80
2018-12-23T05:31:09.168Z,15.90
2018-12-23T05:33:38.180Z,15.90
2018-12-23T05:36:07.209Z,16.00
2018-12-23T05:38:36.196Z,16.00
2018-12-23T05:41:05.219Z,16.00
2018-12-23T05:43:34.326Z,16.10
2018-12-23T05:46:03.445Z,16.10
2018-12-23T05:48:33.471Z,16.20
2018-12-23T05:51:02.473Z,16.30
2018-12-23T05:53:31.616Z,16.30
2018-12-23T05:55:59.297Z,16.30
2018-12-23T05:58:28.286Z,16.30
2018-12-23T06:00:57.279Z,16.40
2018-12-23T06:03:26.240Z,16.50
2018-12-23T06:05:55.228Z,16.70
2018-12-23T06:08:24.856Z,16.30
2018-12-23T06:10:53.856Z,16.20
2018-12-23T06:13:22.969Z,16.20
2018-12-23T06:15:51.828Z,16.40
2018-12-23T06:18:20.775Z,16.30
2018-12-23T06:20:49.909Z,16.30
2018-12-23T06:23:18.904Z,16.20
2018-12-23T06:25:47.883Z,16.20
2018-12-23T06:28:16.780Z,16.30
2018-12-23T06:30:45.755Z,16.30
2018-12-23T06:33:14.639Z,16.60
2018-12-23T06:35:43.794Z,16.60
2018-12-23T06:38:12.791Z,16.50
2018-12-23T06:40:41.880Z,16.50
2018-12-23T06:43:10.877Z,16.50
2018-12-23T06:45:39.894Z,16.50
2018-12-23T06:48:09.008Z,16.50
2018-12-23T06:50:38.005Z,16.60
2018-12-23T06:53:07.051Z,16.20
2018-12-23T06:55:36.051Z,16.00
2018-12-23T06:58:04.990Z,16.20
2018-12-23T07:00:33.911Z,16.50
2018-12-23T07:03:03.676Z,16.60
2018-12-23T07:05:32.588Z,16.80
2018-12-23T07:08:01.517Z,16.90
2018-12-23T07:10:30.644Z,16.80
2018-12-23T07:12:59.623Z,16.90
2018-12-23T07:15:29.404Z,16.80
2018-12-23T07:17:58.559Z,16.80
2018-12-23T07:20:27.493Z,16.80
2018-12-23T07:22:56.588Z,16.80
2018-12-23T07:25:25.500Z,16.80
2018-12-23T07:27:54.620Z,16.70
2018-12-23T07:30:23.626Z,16.70
2018-12-23T07:32:52.636Z,16.70
2018-12-23T07:35:21.744Z,16.80
2018-12-23T07:37:50.769Z,16.90
2018-12-23T07:40:19.752Z,17.00
2018-12-23T07:42:48.776Z,16.90
2018-12-23T07:45:17.689Z,16.90
2018-12-23T07:47:46.692Z,17.00
2018-12-23T07:50:16.472Z,17.10
2018-12-23T07:52:45.411Z,17.20
2018-12-23T07:55:14.544Z,17.10
2018-12-23T07:57:43.582Z,16.90
2018-12-23T08:00:12.576Z,17.00
2018-12-23T08:02:41.416Z,18.20
2018-12-23T08:05:10.480Z,17.80
2018-12-23T08:07:39.477Z,17.80
2018-12-23T08:10:08.396Z,17.70
2018-12-23T08:12:37.439Z,17.30
2018-12-23T08:15:06.540Z,17.10
2018-12-23T08:17:35.720Z,17.20
2018-12-23T08:20:04.888Z,17.00
2018-12-23T08:22:33.847Z,17.30
2018-12-23T08:25:02.896Z,17.50
2018-12-23T08:27:31.988Z,18.10
2018-12-23T08:30:01.099Z,16.50
2018-12-23T08:32:30.108Z,16.50
2018-12-23T08:35:00.278Z,16.80
2018-12-23T08:37:29.462Z,16.90
2018-12-23T08:39:58.477Z,17.10
2018-12-23T08:42:27.625Z,17.30
2018-12-23T08:44:56.625Z,17.10
2018-12-23T08:47:25.628Z,17.20
2018-12-23T08:49:54.628Z,18.10
2018-12-23T08:52:23.637Z,18.40
2018-12-23T08:54:52.662Z,18.50
2018-12-23T08:57:21.758Z,18.90
2018-12-23T08:59:50.661Z,18.70
2018-12-23T09:02:19.571Z,18.90
2018-12-23T09:04:48.571Z,18.50
2018-12-23T09:07:17.597Z,19.70
2018-12-23T09:09:46.606Z,19.50
2018-12-23T09:12:15.629Z,19.30
2018-12-23T09:14:44.553Z,19.60
2018-12-23T09:17:13.524Z,19.60
2018-12-23T09:19:42.642Z,19.60
2018-12-23T09:22:11.751Z,19.90
2018-12-23T09:24:40.761Z,20.10
2018-12-23T09:27:09.719Z,20.00
2018-12-23T09:29:38.810Z,19.80
2018-12-23T09:32:07.791Z,19.40
2018-12-23T09:34:36.743Z,19.30
2018-12-23T09:37:05.841Z,18.80
2018-12-23T09:39:34.590Z,19.20
2018-12-23T09:42:03.735Z,19.10
2018-12-23T09:44:32.754Z,19.00
2018-12-23T09:47:01.973Z,19.90
2018-12-23T09:49:30.981Z,19.50
2018-12-23T09:52:00.004Z,19.90
2018-12-23T09:54:29.097Z,20.00
2018-12-23T09:56:58.005Z,19.80
2018-12-23T09:59:27.013Z,19.90
2018-12-23T10:01:56.028Z,19.50
2018-12-23T10:04:25.189Z,19.60
2018-12-23T10:06:54.333Z,19.60
2018-12-23T10:09:23.374Z,20.00
2018-12-23T10:11:52.488Z,19.90
2018-12-23T10:14:21.532Z,20.40
2018-12-23T10:16:50.549Z,21.10
2018-12-23T10:19:19.521Z,21.80
2018-12-23T10:21:48.524Z,21.50
2018-12-23T10:24:17.635Z,21.50
2018-12-23T10:26:46.673Z,20.60
2018-12-23T10:29:15.769Z,21.60
2018-12-23T10:31:44.993Z,21.60
2018-12-23T10:34:14.052Z,22.20
2018-12-23T10:36:43.240Z,21.60
2018-12-23T10:39:12.316Z,22.00
2018-12-23T10:41:41.366Z,22.70
2018-12-23T10:44:10.379Z,22.10
2018-12-23T10:46:39.468Z,22.70
2018-12-23T10:49:08.580Z,22.80
2018-12-23T10:51:37.693Z,23.70
2018-12-23T10:54:06.689Z,23.50
2018-12-23T10:56:35.611Z,22.90
2018-12-23T10:59:05.014Z,22.90
2018-12-23T11:01:34.023Z,22.90
2018-12-23T11:04:03.187Z,22.90
2018-12-23T11:06:32.120Z,22.90
2018-12-23T11:09:01.182Z,23.30
2018-12-23T11:11:31.922Z,23.30
2018-12-23T11:14:00.932Z,23.50
2018-12-23T11:16:30.025Z,23.50
2018-12-23T11:18:59.159Z,23.70
2018-12-23T11:21:28.069Z,23.70
2018-12-23T11:23:57.169Z,23.90
2018-12-23T11:26:27.597Z,24.10
2018-12-23T11:28:56.522Z,24.20
2018-12-23T11:31:25.611Z,24.20
2018-12-23T11:33:54.763Z,24.20
2018-12-23T11:36:23.656Z,24.10
2018-12-23T11:38:52.580Z,23.50
2018-12-23T11:41:21.585Z,23.70
2018-12-23T11:43:50.697Z,24.10
2018-12-23T11:46:19.800Z,24.10
2018-12-23T11:48:49.016Z,24.00
2018-12-23T11:51:18.928Z,23.70
2018-12-23T11:53:47.888Z,23.60
2018-12-23T11:56:17.106Z,23.60
2018-12-23T11:58:46.194Z,23.50
2018-12-23T12:01:15.283Z,23.40
2018-12-23T12:03:44.509Z,23.20
2018-12-23T12:06:13.546Z,23.20
2018-12-23T12:08:43.846Z,23.20
2018-12-23T12:11:13.126Z,23.30
2018-12-23T12:13:42.097Z,23.30
2018-12-23T12:16:11.058Z,23.20
2018-12-23T12:18:40.115Z,22.90
2018-12-23T12:21:09.230Z,22.90
2018-12-23T12:23:38.282Z,22.70
2018-12-23T12:26:07.222Z,22.90
2018-12-23T12:28:36.140Z,22.60
2018-12-23T12:31:05.290Z,22.70
2018-12-23T12:33:34.266Z,22.30
2018-12-23T12:36:03.377Z,22.30
2018-12-23T12:38:32.396Z,22.20
2018-12-23T12:41:01.392Z,22.50
2018-12-23T12:43:30.337Z,22.80
2018-12-23T12:46:00.579Z,23.00
2018-12-23T12:49:12.419Z,23.10
2018-12-23T12:51:42.598Z,23.20
2018-12-23T12:54:12.760Z,23.10
2018-12-23T12:56:43.017Z,23.20
2018-12-23T12:59:13.325Z,23.30
2018-12-23T13:01:43.296Z,23.30
2018-12-23T13:04:13.603Z,23.40
2018-12-23T13:06:43.962Z,23.20
2018-12-23T13:09:14.195Z,23.40
2018-12-23T13:11:44.529Z,23.40
2018-12-23T13:14:14.752Z,23.30
2018-12-23T13:16:44.995Z,23.40
2018-12-23T13:19:15.258Z,23.40
2018-12-23T13:21:45.601Z,23.50
2018-12-23T13:24:16.068Z,23.20
2018-12-23T13:26:46.256Z,23.10
2018-12-23T13:29:16.412Z,23.40
2018-12-23T13:31:46.567Z,23.70
2018-12-23T13:34:16.546Z,23.70
2018-12-23T13:36:46.802Z,23.60
2018-12-23T13:39:17.327Z,23.70
2018-12-23T13:42:01.448Z,23.50
2018-12-23T13:45:15.359Z,23.80
2018-12-23T13:48:02.170Z,23.70
2018-12-23T13:51:15.274Z,23.80
2018-12-23T13:54:30.858Z,23.70
2018-12-23T13:57:36.971Z,23.90
2018-12-23T14:00:43.616Z,23.90
2018-12-23T14:03:54.583Z,24.00
2018-12-23T14:07:00.729Z,23.90
2018-12-23T14:10:16.393Z,24.50
2018-12-23T14:12:46.038Z,24.10
2018-12-23T14:15:16.380Z,23.90
2018-12-23T14:17:47.748Z,24.00
2018-12-23T14:20:18.194Z,24.00
2018-12-23T14:22:48.418Z,24.00
2018-12-23T14:25:18.768Z,24.00
2018-12-23T14:27:48.891Z,24.00
2018-12-23T14:30:19.147Z,23.90
2018-12-23T14:32:49.289Z,23.90
2018-12-23T14:35:19.210Z,23.80
2018-12-23T14:37:49.459Z,24.10
2018-12-23T14:40:19.723Z,24.00
2018-12-23T14:42:50.128Z,24.00
2018-12-23T14:45:20.280Z,24.10
2018-12-23T14:47:50.500Z,24.00
2018-12-23T14:50:20.642Z,24.00
2018-12-23T14:52:50.867Z,24.00
2018-12-23T14:55:21.127Z,24.20
2018-12-23T14:57:51.364Z,24.10
2018-12-23T15:00:21.408Z,24.00
2018-12-23T15:02:51.776Z,24.10
2018-12-23T15:05:22.049Z,24.20
2018-12-23T15:07:52.307Z,24.30
2018-12-23T15:10:22.588Z,24.30
2018-12-23T15:12:52.898Z,24.20
2018-12-23T15:15:23.154Z,23.90
2018-12-23T15:17:53.261Z,23.90
2018-12-23T15:20:23.327Z,23.90
2018-12-23T15:22:53.644Z,24.30
2018-12-23T15:25:23.878Z,24.20
2018-12-23T15:27:54.104Z,24.50
2018-12-23T15:30:24.479Z,24.80
2018-12-23T15:32:54.762Z,25.00
2018-12-23T15:35:25.038Z,24.90
2018-12-23T15:37:55.248Z,24.60
2018-12-23T15:40:25.323Z,24.10
2018-12-23T15:42:55.637Z,24.40
2018-12-23T15:45:25.916Z,24.90
2018-12-23T15:47:56.048Z,24.20
2018-12-23T15:50:26.164Z,24.00
2018-12-23T15:52:56.392Z,23.90
2018-12-23T15:55:26.529Z,23.70
2018-12-23T15:57:56.869Z,23.70
2018-12-23T16:00:27.106Z,23.60
2018-12-23T16:02:57.346Z,23.60
2018-12-23T16:05:27.611Z,23.60
2018-12-23T16:07:57.824Z,23.40
2018-12-23T16:10:28.079Z,23.40
2018-12-23T16:12:58.301Z,23.40
2018-12-23T16:15:28.558Z,23.40
2018-12-23T16:17:58.889Z,23.40
2018-12-23T16:20:29.043Z,23.30
2018-12-23T16:22:59.156Z,23.30
2018-12-23T16:25:29.525Z,23.40
2018-12-23T16:27:59.838Z,23.40
2018-12-23T16:30:30.102Z,23.40
2018-12-23T16:33:01.834Z,23.40
2018-12-23T16:35:32.314Z,23.40
2018-12-23T16:38:03.986Z,23.50
2018-12-23T16:40:36.111Z,23.90
2018-12-23T16:43:08.496Z,23.50
2018-12-23T16:45:39.943Z,23.80
2018-12-23T16:48:12.029Z,23.90
2018-12-23T16:50:43.770Z,24.10
2018-12-23T16:53:16.025Z,24.20
2018-12-23T16:55:46.457Z,24.20
2018-12-23T16:58:18.702Z,24.40
2018-12-23T17:00:49.989Z,24.90
2018-12-23T17:03:21.558Z,24.50
2018-12-23T17:05:53.373Z,25.30
2018-12-23T17:08:24.251Z,24.60
2018-12-23T17:10:55.197Z,25.30
2018-12-23T17:13:27.439Z,24.80
2018-12-23T17:15:59.275Z,24.90
2018-12-23T17:18:30.598Z,24.90
2018-12-23T17:21:03.590Z,24.90
2018-12-23T17:23:34.989Z,25.10
2018-12-23T17:26:06.248Z,25.00
2018-12-23T17:28:39.954Z,25.00
2018-12-23T17:31:11.901Z,24.90
2018-12-23T17:33:43.762Z,24.90
2018-12-23T17:36:14.976Z,24.90
2018-12-23T17:38:48.207Z,24.70
2018-12-23T17:41:19.970Z,24.70
2018-12-23T17:43:53.552Z,24.60
2018-12-23T17:46:25.020Z,24.50
2018-12-23T17:48:56.377Z,24.50
2018-12-23T17:51:28.131Z,24.50
2018-12-23T17:53:59.540Z,24.40
2018-12-23T17:56:31.265Z,24.40
2018-12-23T17:59:03.065Z,24.40
2018-12-23T18:01:34.750Z,24.30
2018-12-23T18:04:07.453Z,24.40
2018-12-23T18:06:38.655Z,24.30
2018-12-23T18:09:09.265Z,24.40
2018-12-23T18:11:41.437Z,24.30
2018-12-23T18:14:12.739Z,24.40
2018-12-23T18:16:43.181Z,24.40
2018-12-23T18:19:13.645Z,24.30
2018-12-23T18:21:45.928Z,24.40
2018-12-23T18:24:16.934Z,24.40
2018-12-23T18:26:48.514Z,24.50
2018-12-23T18:29:18.945Z,24.60
2018-12-23T18:31:50.836Z,24.70
2018-12-23T18:34:22.076Z,24.90
2018-12-23T18:36:53.852Z,24.80
2018-12-23T18:39:25.865Z,24.90
2018-12-23T18:41:59.050Z,24.90
2018-12-23T18:44:32.376Z,24.90
2018-12-23T18:47:03.437Z,25.00
2018-12-23T18:49:33.634Z,25.00
2018-12-23T18:52:03.774Z,25.00
2018-12-23T18:54:34.018Z,25.20
2018-12-23T18:57:07.914Z,25.20
2018-12-23T18:59:42.697Z,25.20
2018-12-23T19:02:15.798Z,25.20
2018-12-23T19:04:46.031Z,25.30
2018-12-23T19:07:16.309Z,25.30
2018-12-23T19:09:59.390Z,25.30
2018-12-23T19:13:23.628Z,25.40
2018-12-23T19:16:12.226Z,25.50
2018-12-23T19:19:27.332Z,25.50
2018-12-23T19:22:29.535Z,25.60
2018-12-23T19:25:29.075Z,25.70
2018-12-23T19:28:42.748Z,25.70
2018-12-23T19:31:59.739Z,25.70
2018-12-23T19:35:05.536Z,25.80
2018-12-23T19:38:11.122Z,25.80
2018-12-23T19:41:07.095Z,25.80
2018-12-23T19:43:59.417Z,20.70
2018-12-23T19:47:25.445Z,20.50
2018-12-23T19:50:16.214Z,19.70
2018-12-23T19:53:19.838Z,19.40
2018-12-23T19:56:40.198Z,18.50
2018-12-23T19:59:56.830Z,18.90
2018-12-23T20:03:12.584Z,21.50
2018-12-23T20:06:29.173Z,21.00
2018-12-23T20:09:46.072Z,20.90
2018-12-23T20:13:05.603Z,20.70
2018-12-23T20:16:12.287Z,20.70
2018-12-23T20:22:10.316Z,20.80
2018-12-23T20:25:15.139Z,20.70
2018-12-23T20:28:10.139Z,20.70
2018-12-23T20:31:34.928Z,20.90
2018-12-23T20:37:50.929Z,20.90
2018-12-23T20:41:20.116Z,21.20
2018-12-23T20:44:20.333Z,21.30
2018-12-23T20:47:38.211Z,21.50
2018-12-23T20:50:33.792Z,21.40
2018-12-23T20:53:53.566Z,21.60
2018-12-23T20:57:13.140Z,21.70
2018-12-23T21:00:07.945Z,22.20
2018-12-23T21:03:17.789Z,21.70
2018-12-23T21:06:23.012Z,21.20
2018-12-23T21:09:31.508Z,21.00
2018-12-23T21:12:36.272Z,21.00
2018-12-23T21:15:53.534Z,21.10
2018-12-23T21:19:31.484Z,21.30
2018-12-23T21:22:34.050Z,21.20
2018-12-23T21:26:02.782Z,21.30
2018-12-23T21:29:09.295Z,21.50
2018-12-23T21:32:15.661Z,21.40
2018-12-23T21:35:20.745Z,21.50
2018-12-23T21:38:27.363Z,21.50
2018-12-23T21:41:53.281Z,21.60
2018-12-23T21:44:56.367Z,21.70
2018-12-23T21:47:53.139Z,21.70
2018-12-23T21:50:45.769Z,21.90
2018-12-23T21:54:13.517Z,21.50
2018-12-23T21:57:14.673Z,21.10
2018-12-23T22:00:03.742Z,21.30
2018-12-23T22:03:25.560Z,20.50
2018-12-23T22:06:48.254Z,20.50
2018-12-23T22:10:01.024Z,21.00
2018-12-23T22:13:17.633Z,20.40
2018-12-23T22:15:47.353Z,20.40
2018-12-23T22:18:17.054Z,20.40
2018-12-23T22:20:46.913Z,20.30
2018-12-23T22:23:16.524Z,20.40
2018-12-23T22:25:46.542Z,20.30
2018-12-23T22:28:16.478Z,20.40
2018-12-23T22:30:46.189Z,20.30
2018-12-23T22:33:15.732Z,20.20
2018-12-23T22:35:45.557Z,20.10
2018-12-23T22:38:15.615Z,20.10
2018-12-23T22:40:52.690Z,20.00
2018-12-23T22:43:22.517Z,20.00
2018-12-23T22:45:52.138Z,19.90
2018-12-23T22:48:21.979Z,20.00
2018-12-23T22:50:51.786Z,19.90
2018-12-23T22:53:21.735Z,19.90
2018-12-23T22:55:51.558Z,19.80
2018-12-23T22:58:21.488Z,19.80
2018-12-23T23:00:51.524Z,19.80
2018-12-23T23:03:21.257Z,19.70
2018-12-23T23:05:51.090Z,19.80
2018-12-23T23:08:22.015Z,19.80
2018-12-23T23:10:51.960Z,19.70
2018-12-23T23:13:21.694Z,20.20
2018-12-23T23:15:51.514Z,19.90
2018-12-23T23:18:21.459Z,20.10
2018-12-23T23:20:51.068Z,20.00
2018-12-23T23:23:21.036Z,19.70
2018-12-23T23:25:50.841Z,19.60
2018-12-23T23:28:20.670Z,19.70
2018-12-23T23:30:50.398Z,20.10
2018-12-23T23:33:20.327Z,20.10
2018-12-23T23:35:50.048Z,20.00
2018-12-23T23:38:19.772Z,19.50
2018-12-23T23:40:49.395Z,19.50
2018-12-23T23:43:20.762Z,19.50
2018-12-23T23:45:50.595Z,20.10
2018-12-23T23:48:21.421Z,19.40
2018-12-23T23:50:52.557Z,19.50
2018-12-23T23:53:22.437Z,19.50
2018-12-23T23:55:52.071Z,19.50
2018-12-23T23:58:21.889Z,19.50
